Time;durP1;ratioP1;P1;durP2;ratioP2;P2;SDS_P1;SDS_P2;PMS_P1;PMS_P2;Temp;Humidity;BMP_temperature;BMP_pressure;BME280_temperature;BME280_humidity;BME280_pressure;Samples;Min_cycle;Max_cycle;Signal;HPM_P1;HPM_P2
2022/08/03 00:01:16;;;;;;;11.35;2.53;;;;;;;20.50;100.00;101487.34;5055518;28;20332;-49
2022/08/03 00:03:41;;;;;;;12.20;2.63;;;;;;;20.41;100.00;101487.78;5054968;28;20028;-50
2022/08/03 00:06:07;;;;;;;10.10;3.08;;;;;;;20.40;100.00;101489.66;5054369;28;20470;-47
2022/08/03 00:08:32;;;;;;;13.73;3.33;;;;;;;20.31;100.00;101485.50;5055983;28;20034;-50
2022/08/03 00:10:57;;;;;;;12.98;2.90;;;;;;;20.28;100.00;101485.91;5056203;28;20168;-50
2022/08/03 00:13:23;;;;;;;9.43;2.75;;;;;;;20.19;100.00;101481.75;5055673;28;20236;-51
2022/08/03 00:15:48;;;;;;;9.18;2.50;;;;;;;20.17;100.00;101489.28;5053497;28;20629;-50
2022/08/03 00:18:14;;;;;;;11.23;2.65;;;;;;;20.10;100.00;101475.72;5053534;28;20416;-48
2022/08/03 00:20:39;;;;;;;18.65;3.20;;;;;;;20.13;100.00;101484.25;5048734;28;20377;-51
2022/08/03 00:23:05;;;;;;;9.98;2.80;;;;;;;20.16;100.00;101479.44;5052299;28;20091;-51
2022/08/03 00:25:31;;;;;;;12.40;2.80;;;;;;;20.17;100.00;101484.66;5061616;28;20028;-48
2022/08/03 00:27:56;;;;;;;15.48;3.40;;;;;;;20.15;100.00;101481.34;5061693;28;20055;-50
2022/08/03 00:30:21;;;;;;;15.77;3.30;;;;;;;20.12;100.00;101479.88;5054283;28;20029;-50
2022/08/03 00:32:47;;;;;;;12.68;2.97;;;;;;;20.10;100.00;101476.53;5055396;28;20031;-49
2022/08/03 00:35:12;;;;;;;10.95;2.88;;;;;;;20.13;100.00;101472.59;5058445;28;20048;-51
2022/08/03 00:37:37;;;;;;;13.18;3.13;;;;;;;20.10;100.00;101467.56;5063572;28;20111;-52
2022/08/03 00:40:03;;;;;;;13.45;3.50;;;;;;;20.04;100.00;101466.50;5055496;28;20043;-48
2022/08/03 00:42:28;;;;;;;10.52;3.38;;;;;;;20.04;100.00;101471.13;5056080;28;20063;-48
2022/08/03 00:44:54;;;;;;;8.48;3.40;;;;;;;19.95;100.00;101470.50;5054140;28;20029;-50
2022/08/03 00:47:19;;;;;;;12.95;3.13;;;;;;;19.93;100.00;101476.13;5054451;28;20085;-47
2022/08/03 00:49:44;;;;;;;17.98;2.97;;;;;;;19.91;100.00;101469.25;5053718;28;20028;-50
2022/08/03 00:52:12;;;;;;;12.82;3.33;;;;;;;19.86;100.00;101474.47;5057062;28;20052;-48
2022/08/03 00:54:38;;;;;;;14.43;3.10;;;;;;;19.80;100.00;101462.56;5044963;28;20463;-49
2022/08/03 00:57:04;;;;;;;12.60;2.95;;;;;;;19.73;100.00;101457.09;5058721;28;20515;-51
2022/08/03 00:59:30;;;;;;;15.05;3.42;;;;;;;19.75;100.00;101463.19;5059425;28;20071;-48
2022/08/03 01:01:55;;;;;;;9.07;2.78;;;;;;;19.73;100.00;101457.09;5059684;28;20063;-47
2022/08/03 01:04:21;;;;;;;17.25;3.17;;;;;;;19.71;100.00;101459.19;5057186;28;20048;-50
2022/08/03 01:07:13;;;;;;;12.63;3.17;;;;;;;19.72;100.00;101457.28;5059500;28;20043;-51
2022/08/03 01:09:52;;;;;;;11.48;3.25;;;;;;;19.70;100.00;101462.09;5056761;28;20033;-50
2022/08/03 01:12:27;;;;;;;11.77;3.25;;;;;;;19.67;100.00;101457.06;5060527;28;20120;-49
2022/08/03 01:15:30;;;;;;;12.63;3.28;;;;;;;19.66;100.00;101458.97;5058477;28;20424;-50
2022/08/03 01:18:06;;;;;;;11.65;3.30;;;;;;;19.64;100.00;101446.69;5036859;28;20036;-51
2022/08/03 01:20:35;;;;;;;14.40;3.78;;;;;;;19.64;100.00;101452.91;5058743;28;20027;-50
2022/08/03 01:23:33;;;;;;;8.88;3.05;;;;;;;19.59;100.00;101451.88;5059561;28;20107;-49
2022/08/03 01:26:11;;;;;;;8.35;3.20;;;;;;;19.59;100.00;101452.72;5059192;28;20056;-49
2022/08/03 01:29:00;;;;;;;9.82;3.33;;;;;;;19.61;100.00;101444.38;5058013;28;20024;-48
2022/08/03 01:31:31;;;;;;;8.02;3.38;;;;;;;19.60;100.00;101450.81;5073317;28;20017;-50
2022/08/03 01:34:01;;;;;;;9.88;3.17;;;;;;;19.63;100.00;101453.94;5059981;28;20024;-51
2022/08/03 01:36:35;;;;;;;16.90;3.80;;;;;;;19.62;100.00;101446.03;5058638;28;20039;-53
2022/08/03 01:39:08;;;;;;;14.82;3.92;;;;;;;19.63;100.00;101448.53;5062960;28;20112;-52
2022/08/03 01:41:37;;;;;;;15.18;4.10;;;;;;;19.63;100.00;101451.25;5052052;28;20525;-51
2022/08/03 01:44:06;;;;;;;14.20;4.13;;;;;;;19.60;100.00;101446.22;5064357;28;20040;-51
2022/08/03 01:46:33;;;;;;;12.40;4.38;;;;;;;19.62;100.00;101440.59;5059011;28;20479;-52
2022/08/03 01:49:01;;;;;;;12.85;4.28;;;;;;;19.59;100.00;101451.88;5061146;28;20805;-50
2022/08/03 01:51:28;;;;;;;13.77;4.40;;;;;;;19.52;100.00;101439.16;5058717;28;20047;-48
2022/08/03 01:53:53;;;;;;;14.63;4.13;;;;;;;19.46;100.00;101439.97;5057921;28;20461;-50
2022/08/03 01:56:22;;;;;;;8.38;3.88;;;;;;;19.47;100.00;101444.34;5058534;28;20451;-51
2022/08/03 01:58:48;;;;;;;14.90;3.75;;;;;;;19.41;100.00;101442.44;5056558;28;20092;-50
2022/08/03 02:01:15;;;;;;;12.00;3.80;;;;;;;19.38;100.00;101441.00;5058248;28;20102;-51
2022/08/03 02:03:45;;;;;;;11.45;4.03;;;;;;;19.39;100.00;101433.69;5055723;28;20063;-50
2022/08/03 02:06:11;;;;;;;13.68;4.00;;;;;;;19.38;100.00;101438.28;5057934;28;20078;-49
2022/08/03 02:08:40;;;;;;;18.52;3.90;;;;;;;19.37;100.00;101439.31;5062374;28;20419;-50
2022/08/03 02:11:06;;;;;;;19.58;4.25;;;;;;;19.33;100.00;101429.94;5057684;28;20020;-47
2022/08/03 02:13:34;;;;;;;13.05;3.90;;;;;;;19.34;100.00;101437.03;5055933;28;20270;-47
2022/08/03 02:16:02;;;;;;;14.07;3.97;;;;;;;19.27;100.00;101446.19;5057360;28;20655;-48
2022/08/03 02:18:30;;;;;;;19.63;4.25;;;;;;;19.23;100.00;101436.78;5060228;28;20052;-49
2022/08/03 02:20:57;;;;;;;14.40;4.53;;;;;;;19.22;100.00;101430.53;5065196;28;20050;-49
2022/08/03 02:23:23;;;;;;;11.70;3.60;;;;;;;19.27;100.00;101438.06;5068371;28;20028;-51
2022/08/03 02:25:52;;;;;;;16.15;4.10;;;;;;;19.24;100.00;101435.75;5057523;28;20143;-47
2022/08/03 02:28:29;;;;;;;14.45;4.32;;;;;;;19.28;100.00;101432.44;5057760;28;20070;-49
2022/08/03 02:30:57;;;;;;;14.25;4.22;;;;;;;19.27;100.00;101425.34;5056501;28;20089;-51
2022/08/03 02:33:37;;;;;;;13.82;4.18;;;;;;;19.29;100.00;101427.84;5056594;28;20020;-51
2022/08/03 02:36:05;;;;;;;8.38;3.90;;;;;;;19.27;100.00;101422.63;5057772;28;20043;-50
2022/08/03 02:38:35;;;;;;;14.40;4.05;;;;;;;19.24;100.00;101427.63;5057936;28;20285;-52
2022/08/03 02:41:06;;;;;;;20.70;4.28;;;;;;;19.20;100.00;101419.91;5055904;28;20028;-51
2022/08/03 02:43:33;;;;;;;;;;;;;;;19.29;100.00;101427.84;5080109;28;20344;-51
2022/08/03 02:45:59;;;;;;;18.13;4.15;;;;;;;19.19;100.00;101426.38;5057334;28;19916;-48
2022/08/03 02:48:29;;;;;;;13.50;3.83;;;;;;;19.18;100.00;101424.69;5055408;28;20025;-48
2022/08/03 02:50:58;;;;;;;14.90;3.95;;;;;;;19.18;100.00;101421.16;5057473;28;20032;-48
2022/08/03 02:53:25;;;;;;;14.05;4.30;;;;;;;19.11;100.00;101414.88;5059638;28;20028;-51
2022/08/03 02:55:52;;;;;;;19.33;4.03;;;;;;;19.01;100.00;101413.41;5057084;28;20032;-51
2022/08/03 02:58:20;;;;;;;12.90;3.97;;;;;;;18.96;100.00;101432.13;5057021;28;20502;-48
2022/08/03 03:00:46;;;;;;;10.13;4.30;;;;;;;18.88;100.00;101421.47;5055875;28;20479;-49
2022/08/03 03:03:13;;;;;;;12.60;4.05;;;;;;;18.87;100.00;101422.50;5055760;28;20036;-50
2022/08/03 03:05:40;;;;;;;19.55;4.30;;;;;;;18.81;100.00;101420.59;5057169;28;20395;-51
2022/08/03 03:08:06;;;;;;;16.92;4.20;;;;;;;18.77;100.00;101422.84;5057050;28;20024;-51
2022/08/03 03:10:31;;;;;;;15.60;4.60;;;;;;;18.74;100.00;101414.31;5056283;28;20033;-49
2022/08/03 03:12:57;;;;;;;13.02;4.10;;;;;;;18.70;100.00;101418.44;5052207;28;20023;-51
2022/08/03 03:15:28;;;;;;;20.33;4.88;;;;;;;18.69;100.00;101411.38;5050625;28;20051;-49
2022/08/03 03:17:54;;;;;;;18.08;5.10;;;;;;;18.69;100.00;101416.78;5056290;28;20029;-50
2022/08/03 03:20:21;;;;;;;14.48;4.53;;;;;;;18.69;100.00;101422.19;5055322;28;20100;-50
2022/08/03 03:22:49;;;;;;;20.38;4.97;;;;;;;18.67;100.00;101419.69;5056019;28;20575;-50
2022/08/03 03:25:15;;;;;;;12.68;4.35;;;;;;;18.67;100.00;101416.13;5056090;28;20092;-52
2022/08/03 03:27:41;;;;;;;16.63;4.78;;;;;;;18.66;100.00;101419.88;5055608;28;20483;-48
2022/08/03 03:30:07;;;;;;;12.85;4.57;;;;;;;18.62;100.00;101414.88;5054595;28;20020;-47
2022/08/03 03:32:35;;;;;;;17.95;4.43;;;;;;;18.59;100.00;101420.69;5055971;28;20028;-49
2022/08/03 03:35:01;;;;;;;15.63;4.85;;;;;;;18.54;100.00;101403.38;5055789;28;20020;-50
2022/08/03 03:37:26;;;;;;;12.65;4.72;;;;;;;18.53;100.00;101407.13;5056233;28;20025;-50
2022/08/03 03:39:55;;;;;;;14.35;4.60;;;;;;;18.55;100.00;101415.84;5055719;28;20104;-50
2022/08/03 03:42:20;;;;;;;15.80;3.90;;;;;;;18.53;100.00;101410.66;5053083;28;20658;-50
2022/08/03 03:44:46;;;;;;;18.90;4.72;;;;;;;18.52;100.00;101403.59;5053726;28;20040;-48
2022/08/03 03:47:12;;;;;;;16.83;4.65;;;;;;;18.53;100.00;101412.53;5055370;28;20074;-50
2022/08/03 03:49:38;;;;;;;17.92;4.47;;;;;;;18.52;100.00;101410.88;5055064;28;20059;-48
2022/08/03 03:52:03;;;;;;;18.75;4.10;;;;;;;18.51;100.00;101401.06;5056584;28;20564;-51
2022/08/03 03:54:42;;;;;;;12.85;4.00;;;;;;;18.52;100.00;101402.75;5054600;28;20115;-48
2022/08/03 03:57:09;;;;;;;13.57;4.25;;;;;;;18.51;100.00;101404.59;5043083;28;20070;-48
2022/08/03 03:59:38;;;;;;;15.60;4.13;;;;;;;18.48;100.00;101407.72;5055016;28;20043;-50
2022/08/03 04:02:04;;;;;;;11.75;3.97;;;;;;;18.47;100.00;101408.75;5054659;28;20656;-50
2022/08/03 04:12:49;;;;;;;15.05;4.30;;;;;;;18.41;100.00;101410.41;5055400;28;20575;-53
2022/08/03 04:15:14;;;;;;;11.82;4.20;;;;;;;18.39;100.00;101415.16;5054394;28;20115;-52
2022/08/03 04:17:42;;;;;;;19.77;4.40;;;;;;;18.42;100.00;101413.94;5055234;28;20035;-52
2022/08/03 04:20:09;;;;;;;15.40;4.50;;;;;;;18.42;100.00;101411.22;5053306;28;20721;-53
2022/08/03 04:22:36;;;;;;;13.18;4.40;;;;;;;18.43;100.00;101408.31;5064703;28;20118;-52
2022/08/03 04:25:07;;;;;;;15.68;4.40;;;;;;;18.44;100.00;101409.16;5055894;28;20013;-53
2022/08/03 04:27:35;;;;;;;19.23;4.43;;;;;;;18.40;100.00;101407.91;5055756;28;20334;-53
2022/08/03 04:30:03;;;;;;;10.82;4.28;;;;;;;18.38;100.00;101405.38;5055341;28;20479;-52
2022/08/03 04:32:30;;;;;;;14.95;4.15;;;;;;;18.36;100.00;101404.72;5056190;28;20036;-51
2022/08/03 04:34:56;;;;;;;10.95;4.03;;;;;;;18.36;100.00;101407.44;5055280;28;20021;-51
2022/08/03 04:37:34;;;;;;;17.83;4.38;;;;;;;18.38;100.00;101415.34;5054755;28;20055;-51
2022/08/03 04:40:01;;;;;;;13.85;4.53;;;;;;;18.39;100.00;101415.16;5041917;28;20123;-53
2022/08/03 04:42:27;;;;;;;16.15;4.38;;;;;;;18.42;100.00;101413.94;5056116;28;20024;-51
2022/08/03 04:44:55;;;;;;;14.18;4.22;;;;;;;18.42;100.00;101419.34;5054420;28;20139;-53
2022/08/03 04:47:21;;;;;;;18.48;4.88;;;;;;;18.43;100.00;101421.84;5055052;28;20093;-53
2022/08/03 04:49:47;;;;;;;16.65;4.80;;;;;;;18.42;100.00;101422.06;5070600;28;20025;-51
2022/08/03 04:52:12;;;;;;;16.85;4.35;;;;;;;18.42;100.00;101422.88;5053080;28;20043;-52
2022/08/03 04:54:39;;;;;;;16.08;4.43;;;;;;;18.43;100.00;101426.41;5053953;28;20081;-51
2022/08/03 04:57:04;;;;;;;17.17;4.60;;;;;;;18.44;100.00;101433.50;5063150;28;20028;-52
2022/08/03 04:59:30;;;;;;;13.48;4.60;;;;;;;18.46;100.00;101439.53;5057239;28;20033;-53
2022/08/03 05:01:55;;;;;;;13.32;4.47;;;;;;;18.47;100.00;101433.09;5056170;28;20044;-51
2022/08/03 05:04:21;;;;;;;15.80;4.35;;;;;;;18.51;100.00;101445.19;5054955;28;20035;-52
2022/08/03 05:06:47;;;;;;;13.68;4.10;;;;;;;18.53;100.00;101439.56;5061968;28;20033;-53
2022/08/03 05:09:12;;;;;;;18.52;4.40;;;;;;;18.54;100.00;101438.56;5060758;28;20476;-52
2022/08/03 05:11:37;;;;;;;19.98;3.88;;;;;;;18.55;100.00;101442.91;5055530;28;20037;-53
2022/08/03 05:14:02;;;;;;;13.50;3.88;;;;;;;18.56;100.00;101437.31;5054091;28;20086;-53
2022/08/03 05:16:28;;;;;;;16.48;4.30;;;;;;;18.60;100.00;101449.41;5054503;28;20655;-51
2022/08/03 05:18:53;;;;;;;19.02;4.07;;;;;;;18.62;100.00;101444.63;5054116;28;20024;-51
2022/08/03 05:21:18;;;;;;;23.50;4.68;;;;;;;18.64;100.00;101452.56;5057027;28;20021;-51
2022/08/03 05:23:44;;;;;;;21.35;4.10;;;;;;;18.66;100.00;101453.19;5055826;28;20035;-53
2022/08/03 05:26:10;;;;;;;11.50;4.03;;;;;;;18.64;100.00;101458.78;5055810;28;20082;-52
2022/08/03 05:28:36;;;;;;;14.45;4.15;;;;;;;18.74;100.00;101453.03;5055119;28;20678;-52
2022/08/03 05:31:01;;;;;;;13.05;4.45;;;;;;;18.77;100.00;101458.03;5057584;28;20104;-50
2022/08/03 05:33:27;;;;;;;11.48;4.20;;;;;;;18.82;100.00;101454.72;5060641;28;20103;-51
2022/08/03 05:35:52;;;;;;;17.58;4.22;;;;;;;18.83;100.00;101454.53;5054786;28;20043;-48
2022/08/03 05:38:18;;;;;;;18.30;3.65;;;;;;;18.88;100.00;101461.25;5053202;28;20033;-51
2022/08/03 05:40:43;;;;;;;16.58;4.15;;;;;;;18.93;100.00;101464.19;5062294;28;20324;-52
2022/08/03 05:43:08;;;;;;;13.43;4.00;;;;;;;18.96;100.00;101467.31;5044425;28;20033;-51
2022/08/03 05:45:35;;;;;;;16.10;4.13;;;;;;;19.00;100.00;101465.03;5057527;28;20490;-52
2022/08/03 05:48:01;;;;;;;12.52;3.67;;;;;;;19.03;100.00;101461.09;5042377;28;20033;-51
2022/08/03 05:50:26;;;;;;;14.93;3.92;;;;;;;19.07;100.00;101467.78;5043430;28;20493;-51
2022/08/03 05:52:56;;;;;;;17.27;3.97;;;;;;;19.10;100.00;101467.38;5056624;28;20035;-52
2022/08/03 05:55:22;;;;;;;10.87;3.70;;;;;;;19.14;100.00;101457.78;5065869;28;20024;-46
2022/08/03 05:57:47;;;;;;;17.58;4.00;;;;;;;19.22;100.00;101467.63;5053380;28;20024;-51
2022/08/03 06:00:13;;;;;;;13.43;3.65;;;;;;;19.23;100.00;101464.72;5051926;28;20117;-51
2022/08/03 06:02:39;;;;;;;16.15;3.80;;;;;;;19.29;100.00;101466.59;5055852;28;20095;-51
2022/08/03 06:05:05;;;;;;;18.48;4.55;;;;;;;19.38;100.00;101459.09;5060269;28;20267;-52
2022/08/03 06:07:31;;;;;;;15.10;3.92;;;;;;;19.46;100.00;101471.66;5054122;28;20028;-49
2022/08/03 06:09:56;;;;;;;13.80;3.90;;;;;;;19.52;100.00;101458.13;5053107;28;20035;-51
2022/08/03 06:12:21;;;;;;;9.43;3.53;;;;;;;19.55;100.00;101455.00;5049032;28;20028;-52
2022/08/03 06:14:47;;;;;;;16.98;3.45;;;;;;;19.62;100.00;101454.16;5053614;28;20028;-50
2022/08/03 06:17:12;;;;;;;15.32;3.60;;;;;;;19.68;100.00;101464.19;5059219;28;20021;-50
2022/08/03 06:19:38;;;;;;;18.83;3.80;;;;;;;19.73;100.00;101462.50;5066815;28;20487;-51
2022/08/03 06:22:03;;;;;;;10.63;3.20;;;;;;;19.82;100.00;101470.47;5052563;28;20095;-51
2022/08/03 06:24:29;;;;;;;22.08;4.07;;;;;;;19.88;100.00;101469.66;5058077;28;20021;-52
2022/08/03 06:26:54;;;;;;;16.38;3.53;;;;;;;19.94;100.00;101471.53;5058254;28;20743;-51
2022/08/03 06:29:20;;;;;;;12.80;3.53;;;;;;;20.07;100.00;101462.56;5050137;28;20059;-52
2022/08/03 06:31:45;;;;;;;15.52;3.47;;;;;;;20.19;100.00;101463.59;5049031;28;20032;-52
2022/08/03 06:34:10;;;;;;;20.25;3.67;;;;;;;20.26;100.00;101464.41;5050160;28;20032;-53
2022/08/03 06:36:36;;;;;;;14.20;3.95;;;;;;;20.42;100.00;101476.72;5050572;28;20020;-53
2022/08/03 06:39:01;;;;;;;11.50;3.70;;;;;;;20.52;100.00;101472.72;5055148;28;20028;-52
2022/08/03 06:41:27;;;;;;;15.43;3.75;;;;;;;20.56;100.00;101474.00;5046661;28;20032;-52
2022/08/03 06:43:52;;;;;;;22.30;3.83;;;;;;;20.58;100.00;101480.03;5049613;28;20043;-53
2022/08/03 06:46:18;;;;;;;16.17;3.30;;;;;;;20.58;100.00;101478.13;5054961;28;20016;-51
2022/08/03 06:48:43;;;;;;;22.00;4.65;;;;;;;20.65;100.00;101478.16;5054528;28;20111;-51
2022/08/03 06:51:09;;;;;;;17.48;3.20;;;;;;;20.77;100.00;101475.63;5052760;28;20536;-53
2022/08/03 06:53:35;;;;;;;21.80;3.50;;;;;;;20.86;100.00;101477.91;5042590;28;20029;-52
2022/08/03 06:56:00;;;;;;;14.77;3.75;;;;;;;20.99;100.00;101482.44;5047530;28;20491;-53
2022/08/03 06:58:25;;;;;;;15.95;3.40;;;;;;;21.05;100.00;101481.56;5055543;28;20023;-51
2022/08/03 07:00:51;;;;;;;18.35;3.53;;;;;;;21.14;100.00;101492.22;5056007;28;20060;-48
2022/08/03 07:03:17;;;;;;;23.52;3.80;;;;;;;21.21;100.00;101485.69;5051645;28;20021;-53
2022/08/03 07:05:45;;;;;;;18.17;3.50;;;;;;;21.23;100.00;101480.88;5054015;28;20024;-53
2022/08/03 07:08:10;;;;;;;17.17;3.65;;;;;;;21.29;100.00;101486.50;5055033;28;20383;-53
2022/08/03 07:10:36;;;;;;;16.33;3.40;;;;;;;21.28;100.00;101484.81;5052658;28;20027;-48
2022/08/03 07:13:01;;;;;;;16.48;3.42;;;;;;;21.31;100.00;101489.81;5050561;28;20103;-52
2022/08/03 07:15:26;;;;;;;11.52;3.45;;;;;;;21.39;100.00;101487.69;5051318;28;20021;-53
2022/08/03 07:17:52;;;;;;;20.33;3.45;;;;;;;21.51;100.00;101493.28;5052578;28;20044;-52
2022/08/03 07:20:18;;;;;;;21.15;3.42;;;;;;;21.71;100.00;101497.78;5055479;28;20459;-52
2022/08/03 07:22:43;;;;;;;23.40;3.35;;;;;;;21.83;100.00;101496.03;5056967;28;20013;-50
2022/08/03 07:25:09;;;;;;;20.60;3.20;;;;;;;21.90;100.00;101494.09;5054778;28;20028;-51
2022/08/03 07:27:35;;;;;;;16.38;3.45;;;;;;;22.10;100.00;101499.38;5052465;28;20029;-49
2022/08/03 07:30:00;;;;;;;14.35;3.60;;;;;;;22.29;100.00;101500.28;5054492;28;20052;-53
2022/08/03 07:32:29;;;;;;;20.45;3.30;;;;;;;22.50;100.00;101506.34;5052085;28;20070;-53
2022/08/03 07:34:55;;;;;;;19.42;3.30;;;;;;;22.63;100.00;101500.78;5046205;28;20028;-51
2022/08/03 07:37:20;;;;;;;17.60;2.65;;;;;;;22.73;100.00;101503.81;5047555;28;20051;-53
2022/08/03 07:39:45;;;;;;;14.98;2.75;;;;;;;22.80;99.44;101503.75;5050319;28;20387;-52
2022/08/03 07:42:11;;;;;;;16.10;2.90;;;;;;;22.85;99.09;101501.16;5051201;28;20021;-52
2022/08/03 07:44:38;;;;;;;15.63;2.60;;;;;;;22.96;99.59;101502.28;5056089;28;20032;-53
2022/08/03 07:47:03;;;;;;;17.70;2.60;;;;;;;22.97;98.77;101495.78;5051880;28;20526;-52
2022/08/03 07:49:29;;;;;;;16.27;2.63;;;;;;;23.13;98.35;101504.44;5047058;28;20028;-48
2022/08/03 07:54:38;;;;;;;22.00;3.03;;;;;;;23.22;99.17;101495.72;5051684;28;20132;-52
2022/08/03 07:57:03;;;;;;;16.92;2.83;;;;;;;23.30;96.05;101496.47;5045776;28;20122;-48
2022/08/03 07:59:29;;;;;;;20.05;2.53;;;;;;;23.37;96.50;101489.88;5053768;28;20155;-50
2022/08/03 08:01:55;;;;;;;15.75;2.65;;;;;;;23.49;96.08;101486.34;5052038;28;20152;-49
2022/08/03 08:04:20;;;;;;;20.27;2.42;;;;;;;23.61;96.24;101492.69;5051984;28;20048;-51
2022/08/03 08:06:46;;;;;;;18.02;2.90;;;;;;;23.69;94.59;101491.50;5053076;28;20772;-50
2022/08/03 08:09:11;;;;;;;15.73;2.40;;;;;;;23.72;94.28;101480.97;5040434;28;20058;-50
2022/08/03 08:11:36;;;;;;;22.13;2.60;;;;;;;23.77;92.96;101483.00;5050128;28;20020;-48
2022/08/03 08:14:02;;;;;;;15.85;2.65;;;;;;;23.87;92.47;101486.00;5044414;28;20247;-49
2022/08/03 08:16:28;;;;;;;18.45;2.22;;;;;;;23.91;91.92;101486.38;5053605;28;20024;-49
2022/08/03 08:18:53;;;;;;;20.70;3.30;;;;;;;24.09;92.89;101499.94;5052256;28;20115;-47
2022/08/03 08:21:18;;;;;;;16.60;2.70;;;;;;;24.14;90.99;101494.59;5064099;28;20374;-49
2022/08/03 08:23:43;;;;;;;12.52;2.42;;;;;;;24.14;90.71;101497.31;5063937;28;20063;-48
2022/08/03 08:26:09;;;;;;;18.75;2.75;;;;;;;24.12;90.30;101499.47;5054240;28;20084;-51
2022/08/03 08:28:34;;;;;;;18.67;2.28;;;;;;;24.09;89.35;101499.09;5063951;28;20417;-47
2022/08/03 08:31:00;;;;;;;15.60;2.53;;;;;;;24.09;89.82;101501.84;5054501;28;20028;-51
2022/08/03 08:33:26;;;;;;;18.20;2.13;;;;;;;24.14;91.25;101486.41;5054901;28;20024;-49
2022/08/03 08:35:52;;;;;;;18.27;2.70;;;;;;;24.29;90.12;101488.66;5054232;28;20028;-50
2022/08/03 08:38:17;;;;;;;16.20;2.42;;;;;;;24.52;90.61;101487.00;5052743;28;20336;-48
2022/08/03 08:40:43;;;;;;;17.70;2.30;;;;;;;24.71;88.37;101484.97;5054413;28;20023;-51
2022/08/03 08:43:08;;;;;;;18.63;2.20;;;;;;;24.91;87.74;101484.59;5052687;28;20051;-50
2022/08/03 08:45:34;;;;;;;20.85;2.42;;;;;;;24.84;85.52;101490.19;5052668;28;20497;-51
2022/08/03 08:48:01;;;;;;;19.27;2.88;;;;;;;24.86;86.87;101493.50;5052148;28;20024;-49
2022/08/03 08:50:28;;;;;;;16.63;2.58;;;;;;;25.03;87.57;101487.28;5052895;28;20259;-52
2022/08/03 08:52:53;;;;;;;19.95;2.65;;;;;;;25.32;84.98;101496.34;5071422;28;20539;-56
2022/08/03 08:55:21;;;;;;;22.98;2.38;;;;;;;25.49;84.43;101491.78;5060714;28;20024;-50
2022/08/03 08:57:49;;;;;;;26.08;2.95;;;;;;;25.52;81.19;101498.66;5056198;28;20426;-52
2022/08/03 09:00:16;;;;;;;25.58;2.80;;;;;;;25.42;79.87;101491.06;5050839;28;20054;-50
2022/08/03 09:02:43;;;;;;;16.80;2.60;;;;;;;25.41;80.14;101491.34;5070868;28;20035;-49
2022/08/03 09:05:13;;;;;;;17.58;2.45;;;;;;;25.50;80.84;101487.13;5054296;28;20340;-49
2022/08/03 09:07:40;;;;;;;21.30;2.42;;;;;;;25.59;79.27;101479.34;5064232;28;20032;-50
2022/08/03 09:10:07;;;;;;;23.48;2.58;;;;;;;25.74;79.64;101484.25;5046335;28;20190;-51
2022/08/03 09:12:42;;;;;;;17.60;2.72;;;;;;;25.95;80.67;101486.31;5050489;28;20391;-53
2022/08/03 09:15:16;;;;;;;20.77;3.05;;;;;;;26.09;79.63;101496.91;5048279;28;20493;-50
2022/08/03 09:17:41;;;;;;;16.95;2.72;;;;;;;26.05;77.00;101497.44;5045697;28;20032;-49
2022/08/03 09:20:08;;;;;;;18.17;2.53;;;;;;;26.11;76.37;101492.03;5050196;28;20032;-50
2022/08/03 09:22:33;;;;;;;17.63;2.78;;;;;;;26.06;74.68;101490.84;5055644;28;20021;-50
2022/08/03 09:25:06;;;;;;;24.45;2.70;;;;;;;26.08;74.74;101495.25;5070673;28;20036;-50
2022/08/03 09:27:42;;;;;;;27.08;2.65;;;;;;;26.21;75.21;101494.94;5065873;28;20471;-52
2022/08/03 09:30:16;;;;;;;22.88;3.08;;;;;;;26.35;73.61;101492.66;5056206;28;20514;-50
2022/08/03 09:32:43;;;;;;;23.02;3.03;;;;;;;26.35;72.04;101496.22;5057730;28;20329;-51
2022/08/03 09:35:10;;;;;;;28.25;2.67;;;;;;;26.54;74.56;101487.72;5058743;28;20039;-53
2022/08/03 09:37:35;;;;;;;23.20;2.55;;;;;;;26.57;71.26;101492.72;5071580;28;20056;-51
2022/08/03 09:40:00;;;;;;;21.77;2.60;;;;;;;26.60;69.64;101492.22;5058508;28;20190;-51
2022/08/03 09:42:26;;;;;;;18.10;2.63;;;;;;;26.74;71.60;101485.28;5058560;28;20020;-51
2022/08/03 09:44:52;;;;;;;19.13;2.75;;;;;;;26.79;69.12;101481.78;5056277;28;20699;-52
2022/08/03 09:47:31;;;;;;;24.83;3.00;;;;;;;26.87;71.30;101489.56;5057346;28;20024;-52
2022/08/03 09:50:00;;;;;;;16.02;2.40;;;;;;;26.92;69.27;101488.81;5057478;28;20063;-52
2022/08/03 09:52:46;;;;;;;24.83;2.60;;;;;;;26.99;70.65;101494.94;5058590;28;20024;-52
2022/08/03 09:55:13;;;;;;;25.15;3.10;;;;;;;27.04;66.82;101488.66;5056934;28;20471;-52
2022/08/03 09:57:45;;;;;;;24.58;2.90;;;;;;;27.11;67.45;101494.78;5064108;28;20504;-52
2022/08/03 10:00:12;;;;;;;24.25;3.08;;;;;;;27.29;67.04;101496.38;5056787;28;20499;-52
2022/08/03 10:02:38;;;;;;;22.45;3.15;;;;;;;27.34;65.41;101489.06;5057149;28;20020;-51
2022/08/03 10:05:05;;;;;;;27.30;3.22;;;;;;;27.40;66.61;101492.66;5057555;28;20380;-51
2022/08/03 10:07:42;;;;;;;24.48;2.70;;;;;;;27.57;66.55;101484.34;5061047;28;20463;-54
2022/08/03 10:10:09;;;;;;;16.65;2.67;;;;;;;27.80;65.28;101488.69;5057015;28;20479;-52
2022/08/03 10:12:35;;;;;;;34.15;2.97;;;;;;;28.00;63.20;101485.28;5058309;28;20135;-52
2022/08/03 10:15:01;;;;;;;24.30;3.63;;;;;;;28.06;61.86;101495.22;5057082;28;20439;-53
2022/08/03 10:17:27;;;;;;;24.80;3.13;;;;;;;28.14;58.17;101496.66;5057403;28;20036;-52
2022/08/03 10:19:52;;;;;;;27.58;3.05;;;;;;;28.18;54.40;101486.78;5056946;28;20391;-51
2022/08/03 10:22:27;;;;;;;22.77;2.72;;;;;;;28.26;54.49;101490.97;5058329;28;20463;-52
2022/08/03 10:25:03;;;;;;;29.50;3.25;;;;;;;28.45;54.50;101483.13;5055934;28;20047;-53
2022/08/03 10:27:33;;;;;;;19.40;3.10;;;;;;;28.46;51.08;101482.84;5058339;28;20035;-52
2022/08/03 10:30:04;;;;;;;19.13;2.40;;;;;;;28.52;50.28;101488.38;5058991;28;20052;-53
2022/08/03 10:32:47;;;;;;;17.20;2.67;;;;;;;28.62;49.81;101471.97;5059227;28;20044;-53
2022/08/03 10:35:14;;;;;;;21.35;2.53;;;;;;;28.79;50.02;101483.59;5045305;28;20036;-54
2022/08/03 10:37:42;;;;;;;22.33;2.70;;;;;;;28.88;49.14;101477.56;5057675;28;20029;-54
2022/08/03 10:40:13;;;;;;;15.05;2.53;;;;;;;29.00;51.00;101467.97;5057024;28;20504;-52
2022/08/03 10:42:41;;;;;;;24.17;3.08;;;;;;;28.92;49.08;101474.03;5058163;28;20039;-52
2022/08/03 10:45:12;;;;;;;19.08;2.90;;;;;;;28.85;49.55;101473.44;5056056;28;20051;-54
2022/08/03 10:47:39;;;;;;;25.52;2.72;;;;;;;28.93;48.61;101469.34;5049086;28;20498;-52
2022/08/03 10:50:05;;;;;;;32.35;3.08;;;;;;;29.01;48.16;101464.16;5056845;28;20483;-53
2022/08/03 10:52:31;;;;;;;19.55;2.72;;;;;;;29.20;48.98;101464.50;5058213;28;20028;-52
2022/08/03 10:57:52;;;;;;;23.60;2.80;;;;;;;29.19;47.05;101454.63;5057724;28;20988;-54
2022/08/03 11:00:22;;;;;;;28.48;3.10;;;;;;;29.37;46.64;101456.00;5060880;28;20037;-54
2022/08/03 11:03:05;;;;;;;;;;;;;;;29.63;47.75;101455.19;5057366;28;20378;-53
2022/08/03 11:05:32;;;;;;;27.85;3.15;;;;;;;29.51;47.72;101456.28;5042931;28;20323;-51
2022/08/03 11:08:16;;;;;;;25.55;3.20;;;;;;;29.49;48.07;101444.72;5057252;28;20040;-53
2022/08/03 11:10:42;;;;;;;21.98;2.85;;;;;;;29.74;48.71;101441.16;5050399;28;20173;-50
2022/08/03 11:13:09;;;;;;;25.95;3.00;;;;;;;30.04;47.22;101435.94;5057336;28;20407;-53
2022/08/03 11:15:35;;;;;;;19.15;2.83;;;;;;;30.10;45.70;101437.56;5056322;28;20051;-52
2022/08/03 11:18:11;;;;;;;22.48;3.42;;;;;;;30.20;46.54;101437.56;5057447;28;20223;-51
2022/08/03 11:20:51;;;;;;;23.02;3.10;;;;;;;30.20;46.90;101440.31;5055672;28;20028;-53
2022/08/03 11:23:19;;;;;;;27.88;2.72;;;;;;;30.36;45.12;101440.28;5057514;28;20455;-53
2022/08/03 11:26:10;;;;;;;24.80;2.33;;;;;;;30.49;46.03;101440.53;5057021;28;20046;-53
2022/08/03 11:28:39;;;;;;;15.52;2.70;;;;;;;30.78;46.11;101439.03;5055772;28;20025;-53